Portada
METAR-TAF:

METAR-TAF

Aeroports :

Aeroport Internacional de Tozeur

Tozeur, Tunísia

latitud: 33-55N, longitud: 008-06E, altitud: 87 m

Observació

L'informe es va fer fa 1 hora i 1 minuts, a les 21:00 UTC
Vent 7 kt del Oest
Temperatura 17°C
Humitat 68%
Pressió 1005 hPa
Visibilitat 10 km o més
Núvols disperses a una alçada de 3300 ft

METAR: DTTZ 192100Z 26007KT 9999 SCT033 17/11 Q1005 NOSIG

Hora: 23:01 (22:01 UTC)

Pronòstic

L'informe es va fer fa 5 hores i 1 minuts, a les 17:00 UTC
Pronòstic vàlid del 19 a les 18 UTC al 20 a les 18 UTC
Vent 10 kt del Sud-Oest
Visibilitat 10 km o més
Núvols disperses a una alçada de 3300 ft
Probabilitat 30% :
Temporalment
l' 19 a les 18 UTC al 19 a les 24 UTC
Núvols disperses a una alçada de 2300 ft, Cumulus congestus.
Cel ennuvolat a una alçada de 3300 ft
pluja

TAF: DTTZ 191700Z 1918/2018 22010KT 9999 SCT033 PROB30 TEMPO 1918/1924 -RA SCT023TCU BKN033

Observacions i pronòstics meteorològics de més de 4000 aeroports (METAR i TAF).

Les estacions disponibles són els punts grocs i vermells al mapa.

Posi el ratolí al punt desitjat per veure el nom de l'estació.

Feu clic per veure les observacions i els pronòstics meteorològics.

Per canviar el mapa: feu clic els botons verds amb una creu de color negre per apropar; al botó verd amb un guió per allunyar la imatge; o en les fletxes verdes per a mapes adjacents.


METAR-TAF: